Tomales, CA (94971)

1:23 PM PDT on August 30, 2015 (GMT -0700)
Bloomfield | | Change Station
CLOSE
Current Station
Personal Weather Station
Location: Petaluma, CA
Elevation: 85 ft
Nearby Weather Stations
Active Advisory: Beach Hazard Statement Active Notice: Record Report

Elev 85 ft 38.30 °N, 122.83 °W | Updated 9 seconds ago

Clear
Clear
77.9 °F
Feels Like 79 °F
N
14.3
Wind Variable Wind from West
Gusts 17.4 mph

Today
High -- | Low -- °F
--% Chance of Precip.
Yesterday
High -- | Low -- °F
Precip. -- in
6:39 AM 7:44 PM
Full, 98% visible
Pressure 30.03 in
Visibility 10.0 miles
Clouds Clear
Heat Index 79 °F
Dew Point 58 °F
Humidity 50%
Rainfall 0.00 in
Snow Depth Not available.
UV 6.0 out of 12
Pollen 6.40 out of 12
Air Quality Not available.
Flu Activity Not available.
METAR KO69 302015Z AUTO 26010G15KT 10SM CLR 27/13 A3003 RMK AO1
Pressure 30.03 in
Visibility 10.0 miles
Clouds Clear
Heat Index 79 °F
Dew Point 58 °F
Humidity 50%
Rainfall 0.00 in
Snow Depth Not available.
UV 6.0 out of 12
Pollen 6.40 out of 12
Air Quality Not available.
Flu Activity Not available.
METAR KO69 302015Z AUTO 26010G15KT 10SM CLR 27/13 A3003 RMK AO1

10-Day Weather Forecast

×

Almanac

Astronomy

Aug. 30, 2015 Rise Set
Actual Time
Civil Twilight
Nautical Twilight
Astronomical Twilight
Moon
Length of Visible Light
Length of Day
Tomorrow will be .
, % of the Moon is Illuminated

Today's Extremes

State Highs State Lows

Community

WunderPhotos

Upload Photos

1,851,048 photos uploaded!

WunderBlogs® & News

Nearby

Air Quality

  Air Quality AQ Index Pollutant
Not available.

Snow Depth

Station Depth Elevation

Earthquake Activity

City Distance Mag. Time & Date
Minimum magnitude displayed is 2.5.

Coastal Water Temperatures

Place Temperature

Stations

Nearby Weather Stations

Station Location Temp. Windchill Dew Point Humidity Wind Precip. Elev Updated Type
                   
Beach Hazard Statement
Statement as of 11:25 AM PDT on August 30, 2015

... Beach hazards statement remains in effect until 9 PM PDT this
evening...

... Beach hazards statement in effect from Sunday morning through
Sunday evening...

* location... all beaches along the coast from Sonoma County south
into Monterey County... long Sandy west facing beaches can be
especially prone to dangerous rip currents today.

* Timing... the remainder of the day through 9pm this evening.

* Impacts... exceptionally strong rip currents and large shore
break.

Precautionary/preparedness actions...

A beach hazard statement for rip currents means that conditions
are present to support a heightened risk of strong rip currents.
Rip currents are typically more frequent and stronger in the
vicinity of jetties... inlets... and piers. Swimmers caught in a
rip current should swim parallel to the coast to escape the rip
current before trying to swim for shore. Swimmers should always
swim near a lifeguard.




Http://www.Weather.Gov/sanfrancisco